Time;durP1;ratioP1;P1;durP2;ratioP2;P2;SDS_P1;SDS_P2;PMS_P1;PMS_P2;Temp;Humidity;BMP_temperature;BMP_pressure;BME280_temperature;BME280_humidity;BME280_pressure;Samples;Min_cycle;Max_cycle;Signal;HPM_P1;HPM_P2
2020/12/22 00:01:15;;;;;;;70.47;24.27;;;;;;;3.49;100.00;98629.34;5056025;28;20097;-79
2020/12/22 00:03:41;;;;;;;53.17;20.85;;;;;;;3.45;100.00;98635.59;5055295;28;20024;-79
2020/12/22 00:06:08;;;;;;;51.78;19.48;;;;;;;3.41;100.00;98630.38;5055089;28;20032;-81
2020/12/22 00:08:33;;;;;;;56.55;21.42;;;;;;;3.42;100.00;98627.69;5054299;28;20115;-81
2020/12/22 00:10:59;;;;;;;58.92;19.42;;;;;;;3.42;100.00;98629.47;5055050;28;20032;-81
2020/12/22 00:13:25;;;;;;;48.30;18.30;;;;;;;3.24;100.00;98626.22;5055049;28;20050;-81
2020/12/22 00:15:50;;;;;;;61.63;21.23;;;;;;;3.22;100.00;98633.31;5054311;28;20036;-81
2020/12/22 00:18:16;;;;;;;52.50;20.75;;;;;;;3.23;100.00;98639.50;5054636;28;20032;-81
2020/12/22 00:20:43;;;;;;;50.88;19.17;;;;;;;3.31;100.00;98642.88;5037047;28;20071;-81
2020/12/22 00:23:08;;;;;;;39.80;17.55;;;;;;;3.46;100.00;98641.75;5047364;28;20020;-81
2020/12/22 00:25:41;;;;;;;41.38;16.08;;;;;;;3.47;100.00;98648.81;5052183;28;20503;-82
2020/12/22 00:28:07;;;;;;;36.30;14.70;;;;;;;3.31;100.00;98647.28;5045892;28;20115;-82
2020/12/22 00:30:33;;;;;;;40.67;16.48;;;;;;;3.33;100.00;98646.34;5052933;28;20079;-81
2020/12/22 00:32:58;;;;;;;48.58;17.92;;;;;;;3.22;100.00;98649.19;5047119;28;20395;-82
2020/12/22 00:35:24;;;;;;;47.08;18.13;;;;;;;3.38;100.00;98649.81;5045550;28;20028;-83
2020/12/22 00:37:50;;;;;;;51.85;18.38;;;;;;;3.41;100.00;98652.41;5054174;28;20028;-82
2020/12/22 00:40:15;;;;;;;45.63;18.83;;;;;;;3.37;100.00;98642.78;5053831;28;20330;-82
2020/12/22 00:42:41;;;;;;;56.88;19.42;;;;;;;3.29;100.00;98645.53;5037173;28;20120;-82
2020/12/22 00:45:06;;;;;;;54.83;19.90;;;;;;;3.40;100.00;98661.25;5039895;28;20071;-82
2020/12/22 00:47:32;;;;;;;49.67;18.55;;;;;;;3.28;100.00;98656.16;5059780;28;20037;-80
2020/12/22 00:49:58;;;;;;;43.15;17.38;;;;;;;3.34;100.00;98657.81;5053859;28;20016;-82
2020/12/22 00:52:23;;;;;;;46.10;17.17;;;;;;;3.24;100.00;98633.28;5053743;28;20039;-82
2020/12/22 00:54:49;;;;;;;38.50;15.63;;;;;;;3.40;100.00;98657.72;5053521;28;20056;-80
2020/12/22 00:57:16;;;;;;;36.47;16.52;;;;;;;3.34;100.00;98649.88;5054529;28;20033;-80
2020/12/22 00:59:41;;;;;;;49.45;17.58;;;;;;;3.32;100.00;98656.97;5053866;28;20131;-80
2020/12/22 01:02:08;;;;;;;50.83;19.77;;;;;;;3.28;100.00;98664.94;5054717;28;20028;-80
2020/12/22 01:04:34;;;;;;;51.13;18.77;;;;;;;3.37;100.00;98658.66;5058177;28;20456;-81
2020/12/22 01:07:00;;;;;;;53.35;18.17;;;;;;;3.31;100.00;98647.28;5057744;28;20107;-80
2020/12/22 01:09:25;;;;;;;54.35;18.10;;;;;;;3.35;100.00;98663.09;5058191;28;20032;-80
2020/12/22 01:11:51;;;;;;;49.20;17.55;;;;;;;3.24;100.00;98651.78;5057358;28;20086;-80
2020/12/22 01:14:17;;;;;;;37.03;15.18;;;;;;;3.33;100.00;98662.22;5074924;28;20033;-80
2020/12/22 01:16:43;;;;;;;45.45;16.40;;;;;;;3.33;100.00;98667.50;5057400;28;20036;-79
2020/12/22 01:19:09;;;;;;;42.53;16.42;;;;;;;3.38;100.00;98676.28;5057426;28;20032;-81
2020/12/22 01:21:34;;;;;;;45.13;16.63;;;;;;;3.30;100.00;98667.56;5058180;28;20033;-80
2020/12/22 01:24:00;;;;;;;43.60;14.98;;;;;;;3.42;100.00;98667.38;5058604;28;20093;-80
2020/12/22 01:26:26;;;;;;;36.80;14.95;;;;;;;3.48;100.00;98664.63;5058308;28;20037;-80
2020/12/22 01:28:53;;;;;;;36.10;15.43;;;;;;;3.40;100.00;98669.19;5057316;28;20090;-81
2020/12/22 01:31:24;;;;;;;42.83;16.08;;;;;;;3.38;100.00;98672.75;5057486;28;20482;-81
2020/12/22 01:33:50;;;;;;;43.35;15.38;;;;;;;3.31;100.00;98669.31;5057594;28;20028;-81
2020/12/22 01:36:15;;;;;;;44.45;15.25;;;;;;;3.29;100.00;98663.19;5057072;28;20036;-81
2020/12/22 01:38:41;;;;;;;43.95;16.27;;;;;;;3.30;100.00;98678.13;5057210;28;20020;-81
2020/12/22 01:41:07;;;;;;;48.03;16.67;;;;;;;3.31;100.00;98674.59;5057283;28;20021;-81
2020/12/22 01:43:32;;;;;;;45.72;16.88;;;;;;;3.35;100.00;98678.97;5057123;28;20029;-81
2020/12/22 01:45:58;;;;;;;44.65;16.08;;;;;;;3.25;100.00;98675.56;5056995;28;20509;-82
2020/12/22 01:48:24;;;;;;;46.00;17.58;;;;;;;3.21;100.00;98679.16;5057457;28;20127;-81
2020/12/22 01:50:49;;;;;;;53.28;16.63;;;;;;;3.13;100.00;98664.31;5057167;28;20029;-81
2020/12/22 01:53:15;;;;;;;39.97;15.30;;;;;;;3.19;100.00;98669.50;5056942;28;20052;-81
2020/12/22 01:55:42;;;;;;;45.85;15.65;;;;;;;3.20;100.00;98663.28;5056749;28;20024;-81
2020/12/22 01:58:08;;;;;;;45.00;16.67;;;;;;;3.22;100.00;98662.41;5056670;28;20062;-81
2020/12/22 02:00:33;;;;;;;42.25;16.17;;;;;;;3.21;100.00;98675.63;5056521;28;20050;-81
2020/12/22 02:02:59;;;;;;;46.25;16.20;;;;;;;3.18;100.00;98673.91;5056886;28;20539;-81
2020/12/22 02:05:25;;;;;;;49.47;16.45;;;;;;;3.18;100.00;98662.47;5056785;28;20381;-81
2020/12/22 02:07:50;;;;;;;63.08;20.75;;;;;;;3.19;100.00;98673.03;5056945;28;20032;-81
2020/12/22 02:10:16;;;;;;;57.95;21.38;;;;;;;3.23;100.00;98655.34;5056898;28;20025;-81
2020/12/22 02:12:41;;;;;;;49.03;18.13;;;;;;;3.22;100.00;98659.75;5073823;28;20063;-81
2020/12/22 02:15:09;;;;;;;48.83;18.27;;;;;;;3.16;100.00;98651.03;5056212;28;20059;-80
2020/12/22 02:17:35;;;;;;;60.90;21.40;;;;;;;3.26;100.00;98644.72;5055874;28;20028;-80
2020/12/22 02:20:03;;;;;;;60.22;20.05;;;;;;;3.35;100.00;98654.28;5056528;28;20577;-80
2020/12/22 02:22:28;;;;;;;50.50;19.48;;;;;;;3.28;100.00;98637.63;5055853;28;20025;-80
2020/12/22 02:24:54;;;;;;;53.13;19.45;;;;;;;3.33;100.00;98643.72;5055561;28;20039;-80
2020/12/22 02:27:20;;;;;;;57.00;20.60;;;;;;;3.27;100.00;98643.81;5055999;28;20094;-80
2020/12/22 02:29:45;;;;;;;60.08;19.80;;;;;;;3.27;100.00;98639.41;5055396;28;20052;-80
2020/12/22 02:32:11;;;;;;;56.85;20.05;;;;;;;3.22;100.00;98637.72;5068700;28;20033;-80
2020/12/22 02:34:36;;;;;;;56.50;19.85;;;;;;;3.19;100.00;98629.84;5060516;28;20028;-80
2020/12/22 02:37:02;;;;;;;67.78;22.23;;;;;;;3.16;100.00;98633.41;5047980;28;20044;-80
2020/12/22 02:39:28;;;;;;;64.97;21.83;;;;;;;3.06;100.00;98625.63;5056244;28;20048;-79
2020/12/22 02:41:53;;;;;;;65.60;21.27;;;;;;;3.02;100.00;98637.13;5046439;28;20471;-80
2020/12/22 02:44:19;;;;;;;61.25;20.83;;;;;;;3.01;100.00;98632.78;5037345;28;20087;-80
2020/12/22 02:46:44;;;;;;;70.72;23.23;;;;;;;3.03;100.00;98625.69;5045008;28;20040;-80
2020/12/22 02:49:10;;;;;;;73.88;24.48;;;;;;;3.02;100.00;98634.50;5043846;28;20111;-79
2020/12/22 02:51:35;;;;;;;64.35;24.13;;;;;;;3.06;100.00;98630.94;5044265;28;20048;-79
2020/12/22 02:54:01;;;;;;;68.50;23.75;;;;;;;3.05;100.00;98623.88;5046062;28;20117;-80
2020/12/22 02:56:27;;;;;;;63.75;20.52;;;;;;;3.06;100.00;98617.72;5055793;28;20029;-79
2020/12/22 02:58:52;;;;;;;71.18;23.27;;;;;;;3.12;100.00;98630.84;5039133;28;20181;-80
2020/12/22 03:01:18;;;;;;;65.85;22.27;;;;;;;3.11;100.00;98623.78;5046943;28;20040;-78
2020/12/22 03:03:45;;;;;;;63.03;20.83;;;;;;;3.18;100.00;98628.09;5047488;28;20035;-78
2020/12/22 03:06:11;;;;;;;68.82;22.67;;;;;;;3.21;100.00;98623.63;5045929;28;20103;-79
2020/12/22 03:08:36;;;;;;;62.28;21.95;;;;;;;3.21;100.00;98620.13;5046783;28;20115;-79
2020/12/22 03:11:03;;;;;;;63.55;19.42;;;;;;;3.17;100.00;98621.94;5044767;28;20025;-79
2020/12/22 03:13:28;;;;;;;71.30;20.65;;;;;;;3.17;100.00;98627.22;5040589;28;20043;-79
2020/12/22 03:15:54;;;;;;;69.32;22.38;;;;;;;3.17;100.00;98623.69;5037968;28;20451;-80
2020/12/22 03:18:20;;;;;;;58.83;21.80;;;;;;;3.37;100.00;98618.09;5043125;28;20025;-79
2020/12/22 03:20:46;;;;;;;58.05;21.42;;;;;;;3.23;100.00;98623.63;5035319;28;20035;-79
2020/12/22 03:23:12;;;;;;;56.75;18.95;;;;;;;3.21;100.00;98621.00;5060072;28;20519;-79
2020/12/22 03:25:38;;;;;;;62.72;20.95;;;;;;;3.19;100.00;98620.16;5049671;28;20032;-79
2020/12/22 03:28:03;;;;;;;65.90;22.38;;;;;;;3.14;100.00;98611.41;5054380;28;20111;-79
2020/12/22 03:30:29;;;;;;;63.47;20.50;;;;;;;3.14;100.00;98611.41;5051516;28;20064;-80
2020/12/22 03:32:54;;;;;;;61.15;21.30;;;;;;;3.12;100.00;98607.03;5075487;28;20039;-80
2020/12/22 03:35:20;;;;;;;67.32;22.80;;;;;;;3.11;100.00;98608.81;5074628;28;20544;-79
2020/12/22 03:37:46;;;;;;;67.47;21.67;;;;;;;3.09;100.00;98615.03;5075489;28;20511;-80
2020/12/22 03:40:13;;;;;;;64.63;21.55;;;;;;;3.14;100.00;98597.31;5064119;28;20120;-80
2020/12/22 03:42:39;;;;;;;62.15;21.38;;;;;;;3.16;100.00;98590.25;5063995;28;20031;-79
2020/12/22 03:45:08;;;;;;;64.43;20.55;;;;;;;3.10;100.00;98587.72;5063202;28;20039;-80
2020/12/22 03:47:34;;;;;;;74.88;26.40;;;;;;;3.13;100.00;98600.88;5069130;28;20066;-80
2020/12/22 03:50:00;;;;;;;60.97;21.70;;;;;;;3.04;100.00;98595.72;5067104;28;20415;-81
2020/12/22 03:52:25;;;;;;;59.35;19.13;;;;;;;3.07;100.00;98607.13;5070277;28;20032;-80
2020/12/22 03:54:51;;;;;;;59.33;20.23;;;;;;;2.90;100.00;98603.84;5063281;28;20089;-80
2020/12/22 03:57:17;;;;;;;64.45;22.80;;;;;;;2.94;100.00;98602.91;5063653;28;20031;-80
2020/12/22 03:59:43;;;;;;;70.30;24.00;;;;;;;2.95;100.00;98606.44;5055483;28;20111;-80
2020/12/22 04:02:09;;;;;;;59.80;20.13;;;;;;;2.95;100.00;98606.44;5073407;28;20463;-80
2020/12/22 04:04:35;;;;;;;77.97;22.85;;;;;;;2.94;100.00;98597.63;5061049;28;20032;-80
2020/12/22 04:07:00;;;;;;;66.93;18.52;;;;;;;2.89;100.00;98594.16;5063434;28;20118;-81
2020/12/22 04:09:26;;;;;;;62.28;18.17;;;;;;;2.86;100.00;98594.22;5066243;28;20039;-80
2020/12/22 04:11:52;;;;;;;61.78;17.90;;;;;;;3.00;100.00;98589.63;5066289;28;20024;-80
2020/12/22 04:14:19;;;;;;;54.25;18.60;;;;;;;2.93;100.00;98573.84;5066331;28;20097;-80
2020/12/22 04:16:45;;;;;;;59.70;19.77;;;;;;;3.05;100.00;98597.44;5065592;28;20036;-80
2020/12/22 04:19:11;;;;;;;63.22;19.48;;;;;;;3.02;100.00;98579.88;5063775;28;20494;-81
2020/12/22 04:21:37;;;;;;;58.22;20.85;;;;;;;3.00;100.00;98578.16;5059278;28;20036;-80
2020/12/22 04:24:04;;;;;;;73.30;21.70;;;;;;;3.06;100.00;98589.50;5074142;28;20035;-80
2020/12/22 04:26:30;;;;;;;75.25;26.60;;;;;;;2.90;100.00;98592.41;5061605;28;20040;-80
2020/12/22 04:28:56;;;;;;;73.20;25.77;;;;;;;3.04;100.00;98598.38;5054442;28;20028;-80
2020/12/22 04:31:22;;;;;;;72.65;26.15;;;;;;;2.97;100.00;98594.94;5054172;28;20133;-80
2020/12/22 04:33:52;;;;;;;75.68;27.10;;;;;;;3.04;100.00;98598.38;5054181;28;20032;-80
2020/12/22 04:36:18;;;;;;;71.53;23.40;;;;;;;3.18;100.00;98604.31;5053908;28;20032;-79
2020/12/22 04:38:44;;;;;;;55.70;19.75;;;;;;;3.26;100.00;98603.28;5053796;28;20020;-80
2020/12/22 04:41:15;;;;;;;59.15;21.30;;;;;;;3.24;100.00;98602.44;5053306;28;20036;-80
2020/12/22 04:43:41;;;;;;;62.42;22.52;;;;;;;3.34;100.00;98604.94;5053631;28;20029;-78
2020/12/22 04:46:08;;;;;;;61.97;23.45;;;;;;;3.31;100.00;98607.63;5070163;28;20500;-79
2020/12/22 04:48:39;;;;;;;57.38;21.30;;;;;;;3.35;100.00;98620.78;5053599;28;20028;-79
2020/12/22 04:51:11;;;;;;;77.88;22.67;;;;;;;3.09;100.00;98618.53;5053546;28;20021;-78
2020/12/22 04:53:37;;;;;;;71.43;24.27;;;;;;;3.14;100.00;98621.97;5053372;28;20380;-79
2020/12/22 04:56:06;;;;;;;62.92;21.65;;;;;;;3.13;100.00;98624.66;5053558;28;20258;-79
2020/12/22 04:58:32;;;;;;;70.68;25.63;;;;;;;3.16;100.00;98614.91;5053374;28;20116;-80
2020/12/22 05:00:58;;;;;;;73.82;24.00;;;;;;;3.19;100.00;98616.63;5053920;28;20089;-79
2020/12/22 05:03:24;;;;;;;73.55;25.33;;;;;;;3.18;100.00;98614.88;5053243;28;20257;-79
2020/12/22 05:05:51;;;;;;;69.63;23.23;;;;;;;3.18;100.00;98610.47;5053830;28;20040;-80
2020/12/22 05:08:16;;;;;;;60.60;20.50;;;;;;;3.22;100.00;98603.38;5053393;28;20024;-80
2020/12/22 05:10:43;;;;;;;57.05;20.50;;;;;;;3.31;100.00;98610.28;5069855;28;20029;-79
2020/12/22 05:13:10;;;;;;;58.60;21.77;;;;;;;3.11;100.00;98602.66;5053139;28;20051;-81
2020/12/22 05:15:35;;;;;;;75.70;26.85;;;;;;;3.03;100.00;98615.13;5053781;28;20495;-80
2020/12/22 05:18:02;;;;;;;58.03;20.50;;;;;;;3.08;100.00;98614.13;5055115;28;20032;-81
2020/12/22 05:20:28;;;;;;;60.05;20.15;;;;;;;3.07;100.00;98606.25;5060411;28;20416;-80
2020/12/22 05:22:54;;;;;;;60.00;20.15;;;;;;;3.02;100.00;98586.94;5072410;28;20032;-80
2020/12/22 05:25:21;;;;;;;71.28;23.75;;;;;;;3.08;100.00;98605.34;5055778;28;20028;-80
2020/12/22 05:27:49;;;;;;;61.35;20.00;;;;;;;3.08;100.00;98607.97;5053322;28;20024;-81
2020/12/22 05:30:19;;;;;;;67.45;21.48;;;;;;;2.96;100.00;98584.38;5053342;28;20040;-81
2020/12/22 05:32:54;;;;;;;57.10;21.52;;;;;;;3.12;100.00;98610.56;5053322;28;20028;-80
2020/12/22 05:35:20;;;;;;;62.63;19.90;;;;;;;2.91;100.00;98602.97;5053958;28;20477;-80
2020/12/22 05:37:50;;;;;;;64.65;18.92;;;;;;;2.93;100.00;98614.38;5054311;28;20060;-80
2020/12/22 05:40:18;;;;;;;58.47;15.90;;;;;;;2.91;100.00;98608.25;5053192;28;20044;-81
2020/12/22 05:42:46;;;;;;;72.53;19.95;;;;;;;2.96;100.00;98608.16;5053555;28;20029;-80
2020/12/22 05:45:11;;;;;;;77.68;23.33;;;;;;;3.04;100.00;98606.31;5053172;28;20036;-81
2020/12/22 05:47:37;;;;;;;84.80;24.77;;;;;;;3.06;100.00;98609.78;5053078;28;20024;-80
2020/12/22 05:50:04;;;;;;;74.53;24.40;;;;;;;3.22;100.00;98606.88;5054636;28;20488;-80
2020/12/22 05:52:31;;;;;;;68.50;21.15;;;;;;;3.11;100.00;98606.16;5072996;28;20028;-80
2020/12/22 05:54:57;;;;;;;67.35;23.27;;;;;;;3.14;100.00;98618.44;5056902;28;20025;-81
2020/12/22 05:57:32;;;;;;;77.35;26.75;;;;;;;3.07;100.00;98612.41;5056539;28;20027;-82
2020/12/22 06:00:12;;;;;;;71.65;21.95;;;;;;;3.15;100.00;98604.34;5056479;28;20028;-81
2020/12/22 06:02:39;;;;;;;83.88;24.85;;;;;;;3.16;100.00;98598.19;5055756;28;20028;-79
2020/12/22 06:05:08;;;;;;;84.45;24.20;;;;;;;3.09;100.00;98589.47;5056506;28;20028;-80
2020/12/22 06:07:34;;;;;;;63.60;21.35;;;;;;;3.13;100.00;98593.81;5072797;28;20473;-79
2020/12/22 06:09:59;;;;;;;66.00;21.73;;;;;;;3.20;100.00;98600.72;5056060;28;20025;-79
2020/12/22 06:12:25;;;;;;;68.68;22.55;;;;;;;3.17;100.00;98607.84;5072572;28;20070;-79
2020/12/22 06:14:52;;;;;;;77.50;27.15;;;;;;;3.13;100.00;98600.88;5055953;28;20024;-79
2020/12/22 06:17:19;;;;;;;87.45;30.45;;;;;;;3.04;100.00;98595.72;5055886;28;20028;-79
2020/12/22 06:19:45;;;;;;;71.00;26.88;;;;;;;3.19;100.00;98606.94;5056241;28;20016;-79
2020/12/22 06:22:16;;;;;;;76.47;26.15;;;;;;;3.14;100.00;98599.94;5051089;28;20021;-74
2020/12/22 06:24:42;;;;;;;74.60;25.23;;;;;;;3.18;100.00;98596.38;5055189;28;20021;-79
2020/12/22 06:27:10;;;;;;;59.47;19.77;;;;;;;3.27;100.00;98596.22;5054272;28;20518;-74
2020/12/22 06:29:37;;;;;;;62.28;19.88;;;;;;;3.32;100.00;98599.69;5061737;27;20116;-74
2020/12/22 06:32:27;;;;;;;57.92;17.40;;;;;;;3.31;100.00;98600.56;5092068;27;20015;-76
2020/12/22 06:35:03;;;;;;;79.00;27.05;;;;;;;2.97;100.00;98592.31;5081946;27;20385;-74
2020/12/22 06:37:43;;;;;;;66.15;25.33;;;;;;;3.07;100.00;98585.09;5100990;27;20030;-76
2020/12/22 06:40:09;;;;;;;55.38;15.25;;;;;;;3.20;100.00;98581.34;5090768;28;20470;-74
2020/12/22 06:42:46;;;;;;;47.25;15.70;;;;;;;3.19;100.00;98584.91;5100854;27;20372;-74
2020/12/22 06:45:25;;;;;;;55.33;16.20;;;;;;;3.11;100.00;98592.94;5091176;27;20605;-75
2020/12/22 06:47:52;;;;;;;68.35;20.63;;;;;;;3.25;100.00;98580.41;5104292;28;20031;-75
2020/12/22 06:50:36;;;;;;;110.05;37.80;;;;;;;3.28;100.00;98592.69;5088726;28;20032;-75
2020/12/22 06:53:02;;;;;;;83.32;27.45;;;;;;;3.24;100.00;98585.69;5110055;27;20026;-75
2020/12/22 06:55:50;;;;;;;77.35;25.58;;;;;;;3.26;100.00;98592.69;5093973;27;20042;-75
2020/12/22 06:58:47;;;;;;;92.05;25.85;;;;;;;3.21;100.00;98588.41;5097541;27;20022;-79
2020/12/22 07:01:32;;;;;;;73.85;25.33;;;;;;;3.34;100.00;98589.94;5086283;27;20517;-79
2020/12/22 07:04:19;;;;;;;76.65;27.23;;;;;;;3.33;100.00;98571.44;5086693;28;20152;-79
2020/12/22 07:06:47;;;;;;;87.47;25.95;;;;;;;3.41;100.00;98581.03;5092041;27;20080;-79
2020/12/22 07:09:14;;;;;;;75.30;24.02;;;;;;;3.39;100.00;98572.22;5094786;27;20035;-79
2020/12/22 07:11:40;;;;;;;74.53;24.08;;;;;;;3.54;100.00;98577.25;5088284;27;20034;-79
2020/12/22 07:14:13;;;;;;;74.30;24.88;;;;;;;3.61;100.00;98557.72;5093032;27;20023;-79
2020/12/22 07:16:49;;;;;;;;;;;;;;;3.66;100.00;98574.38;5093655;27;20035;-80
2020/12/22 07:19:21;;;;;;;61.17;22.35;;;;;;;3.73;100.00;98568.09;5101048;28;19912;-80
2020/12/22 07:21:47;;;;;;;67.13;25.33;;;;;;;3.69;100.00;98568.19;5090929;27;20041;-79
2020/12/22 07:24:13;;;;;;;67.72;26.95;;;;;;;3.70;100.00;98559.31;5108371;28;20039;-79
2020/12/22 07:26:39;;;;;;;62.97;25.67;;;;;;;3.54;100.00;98548.16;5082435;28;20478;-80
2020/12/22 07:29:06;;;;;;;69.20;24.75;;;;;;;3.61;100.00;98563.03;5090671;27;20020;-80
2020/12/22 07:31:34;;;;;;;64.80;24.27;;;;;;;3.79;100.00;98559.16;5085463;28;20490;-79
2020/12/22 07:34:06;;;;;;;71.90;25.98;;;;;;;3.77;100.00;98548.63;5089070;27;20027;-80
2020/12/22 07:36:35;;;;;;;69.18;22.25;;;;;;;3.78;100.00;98549.50;5085894;27;20039;-79
2020/12/22 07:39:10;;;;;;;78.43;31.08;;;;;;;3.84;100.00;98560.81;5089899;27;20462;-79
2020/12/22 07:41:36;;;;;;;68.43;22.25;;;;;;;3.92;100.00;98546.56;5130462;27;20091;-81
2020/12/22 07:44:10;;;;;;;53.00;20.85;;;;;;;3.82;100.00;98543.22;5083824;27;20402;-81
2020/12/22 07:46:37;;;;;;;58.63;21.50;;;;;;;3.83;100.00;98556.44;5094895;27;20486;-79
2020/12/22 07:49:05;;;;;;;69.72;23.38;;;;;;;3.69;100.00;98545.22;5085004;28;20031;-81
2020/12/22 07:51:30;;;;;;;71.18;23.25;;;;;;;3.60;100.00;98537.47;5095715;28;20024;-79
2020/12/22 07:54:06;;;;;;;60.67;20.08;;;;;;;3.60;100.00;98539.25;5104076;28;20033;-80
2020/12/22 07:56:42;;;;;;;57.53;19.33;;;;;;;3.53;100.00;98538.50;5091309;28;20039;-81
2020/12/22 07:59:15;;;;;;;51.47;18.42;;;;;;;3.65;100.00;98540.91;5085820;27;20509;-79
2020/12/22 08:01:50;;;;;;;46.10;17.80;;;;;;;3.77;100.00;98539.81;5104638;27;20090;-80
2020/12/22 08:04:19;;;;;;;47.40;16.88;;;;;;;3.95;100.00;98549.16;5084775;28;20065;-81
2020/12/22 08:06:57;;;;;;;52.47;18.63;;;;;;;4.00;100.00;98555.25;5084852;28;20122;-79
2020/12/22 08:09:25;;;;;;;62.38;18.30;;;;;;;3.75;100.00;98547.75;5084435;28;20114;-76
2020/12/22 08:12:07;;;;;;;59.47;20.65;;;;;;;3.75;100.00;98550.41;5086501;28;20438;-81
2020/12/22 08:14:38;;;;;;;54.10;16.65;;;;;;;3.57;100.00;98553.38;5077903;27;20023;-80
2020/12/22 08:17:19;;;;;;;39.17;15.50;;;;;;;3.88;100.00;98550.19;5081997;27;20038;-80
2020/12/22 08:19:45;;;;;;;33.33;13.30;;;;;;;4.18;100.00;98554.88;5088139;27;20023;-80
2020/12/22 08:22:18;;;;;;;37.72;14.98;;;;;;;4.41;100.00;98557.91;5083560;27;20035;-79
2020/12/22 08:24:44;;;;;;;45.83;19.05;;;;;;;4.61;99.66;98554.84;5086142;27;20030;-81
2020/12/22 08:27:11;;;;;;;42.55;16.88;;;;;;;4.90;98.67;98557.69;5092123;27;20041;-81
2020/12/22 08:29:38;;;;;;;31.85;13.70;;;;;;;4.39;99.61;98549.13;5084783;28;20047;-78
2020/12/22 08:32:06;;;;;;;31.55;12.43;;;;;;;4.44;100.00;98549.88;5080932;28;20046;-80
2020/12/22 08:34:31;;;;;;;25.25;10.77;;;;;;;4.37;98.71;98541.19;5089215;28;20027;-80
2020/12/22 08:36:57;;;;;;;104.25;42.10;;;;;;;4.54;98.99;98548.78;5082663;28;20742;-79
2020/12/22 08:39:25;;;;;;;64.68;26.98;;;;;;;4.62;99.20;98544.19;5092782;28;20418;-80
2020/12/22 08:41:55;;;;;;;87.32;30.80;;;;;;;4.66;99.27;98545.88;5092939;27;20024;-79
2020/12/22 08:44:31;;;;;;;55.13;19.60;;;;;;;4.70;98.85;98542.25;5086293;28;20016;-81
2020/12/22 08:47:09;;;;;;;33.40;13.65;;;;;;;4.86;94.92;98538.31;5090203;28;20029;-80
2020/12/22 08:49:35;;;;;;;74.80;26.98;;;;;;;4.85;95.97;98541.91;5085945;28;20048;-79
2020/12/22 08:52:15;;;;;;;67.03;30.90;;;;;;;4.80;97.59;98549.06;5087974;28;20028;-79
2020/12/22 08:54:42;;;;;;;23.73;10.82;;;;;;;4.73;94.62;98531.59;5077646;28;20035;-80
2020/12/22 08:57:08;;;;;;;28.05;12.30;;;;;;;4.56;96.16;98541.66;5084982;28;20114;-78
2020/12/22 08:59:39;;;;;;;30.55;12.23;;;;;;;4.67;96.57;98544.97;5102661;28;20027;-80
2020/12/22 09:15:53;;;;;;;20.40;10.68;;;;;;;4.54;94.33;98474.63;4967312;28;20618;-80
2020/12/22 09:18:18;;;;;;;243.45;86.65;;;;;;;4.86;93.57;98503.84;5103597;28;20047;-80
2020/12/22 09:20:44;;;;;;;45.92;20.27;;;;;;;4.70;94.96;98501.63;5082672;28;20503;-79
2020/12/22 09:23:10;;;;;;;35.65;17.63;;;;;;;4.90;94.16;98508.19;5093369;27;20034;-80
2020/12/22 09:25:35;;;;;;;32.13;15.93;;;;;;;5.05;93.94;98504.28;5089689;27;20113;-79
2020/12/22 09:28:01;;;;;;;27.63;12.75;;;;;;;5.18;92.81;98491.59;5085239;27;20055;-79
2020/12/22 09:30:27;;;;;;;29.65;12.60;;;;;;;5.25;92.15;98507.34;5086783;27;20107;-79
2020/12/22 09:32:53;;;;;;;30.70;16.00;;;;;;;5.42;90.42;98509.53;5085776;27;20032;-79
2020/12/22 09:35:19;;;;;;;28.35;15.45;;;;;;;5.61;89.49;98502.84;5084905;28;20107;-80
2020/12/22 09:37:45;;;;;;;25.15;12.32;;;;;;;5.65;88.88;98500.97;5086092;28;20073;-80
2020/12/22 09:40:11;;;;;;;30.25;12.68;;;;;;;5.49;89.14;98495.19;5090689;28;20502;-80
2020/12/22 09:42:36;;;;;;;31.27;14.02;;;;;;;5.14;91.27;98493.44;5088155;27;20033;-79
2020/12/22 09:45:02;;;;;;;68.68;34.13;;;;;;;4.88;92.85;98494.13;5088423;27;20031;-79
2020/12/22 09:47:28;;;;;;;39.65;19.60;;;;;;;4.99;93.60;98492.97;5093989;27;20125;-79
2020/12/22 09:49:54;;;;;;;38.65;17.95;;;;;;;5.19;92.73;98490.69;5088535;27;20496;-80
2020/12/22 09:52:19;;;;;;;70.05;36.22;;;;;;;5.00;93.27;98492.94;5089835;28;20393;-80
2020/12/22 09:54:45;;;;;;;36.80;18.30;;;;;;;5.08;93.70;98495.38;5095174;27;20031;-80
2020/12/22 09:57:11;;;;;;;37.63;18.02;;;;;;;5.05;92.44;98487.50;5100022;28;20038;-80
2020/12/22 09:59:36;;;;;;;35.97;18.20;;;;;;;4.97;93.79;98498.31;5083656;27;20027;-80
2020/12/22 10:02:02;;;;;;;44.25;20.27;;;;;;;5.14;92.10;98505.84;5099256;27;20019;-80
2020/12/22 10:04:28;;;;;;;48.22;24.02;;;;;;;4.79;93.46;98501.41;5084327;27;20027;-81
2020/12/22 10:06:54;;;;;;;55.08;29.00;;;;;;;4.72;95.04;98513.94;5084895;27;20080;-80
2020/12/22 10:09:19;;;;;;;65.93;29.40;;;;;;;4.85;94.95;98510.09;5099560;27;20027;-81
2020/12/22 10:11:45;;;;;;;48.10;23.42;;;;;;;4.74;96.23;98513.88;5087561;27;20525;-81
2020/12/22 10:14:11;;;;;;;49.85;25.48;;;;;;;5.00;96.29;98515.91;5085621;28;20108;-80
2020/12/22 10:16:37;;;;;;;43.72;21.45;;;;;;;4.99;95.43;98491.19;5093151;27;20036;-80
2020/12/22 10:19:03;;;;;;;31.33;15.70;;;;;;;5.24;95.03;98512.66;5109317;28;20031;-81
2020/12/22 10:21:29;;;;;;;30.65;14.32;;;;;;;5.28;93.89;98495.75;5105244;28;20051;-80
2020/12/22 10:24:04;;;;;;;42.85;19.33;;;;;;;5.17;94.60;98488.06;5120462;28;20038;-80
2020/12/22 10:26:31;;;;;;;43.53;21.48;;;;;;;5.16;92.67;98498.72;5098750;28;20035;-80
2020/12/22 10:28:57;;;;;;;37.08;19.10;;;;;;;5.16;92.95;98496.97;5104460;27;20135;-80
2020/12/22 10:31:24;;;;;;;46.17;22.50;;;;;;;5.14;93.66;98498.75;5083365;28;20678;-83
2020/12/22 10:33:50;;;;;;;42.38;20.80;;;;;;;5.30;93.64;98501.88;5110645;28;20362;-80
2020/12/22 10:36:20;;;;;;;43.25;22.02;;;;;;;5.57;93.07;98498.50;5079938;27;20038;-80
2020/12/22 10:38:46;;;;;;;40.85;19.98;;;;;;;5.80;91.32;98493.47;5088685;27;20031;-79
2020/12/22 10:41:12;;;;;;;42.08;18.58;;;;;;;5.70;90.09;98475.16;5096041;27;20058;-80
2020/12/22 10:43:37;;;;;;;35.17;17.02;;;;;;;5.50;91.48;98486.34;5104243;27;20071;-80
2020/12/22 10:46:03;;;;;;;44.75;20.75;;;;;;;5.53;91.02;98480.94;5115795;28;20020;-78
2020/12/22 10:48:30;;;;;;;51.85;24.13;;;;;;;5.44;92.68;98483.84;5095681;27;20031;-81
2020/12/22 10:50:56;;;;;;;46.90;20.95;;;;;;;5.51;92.23;98476.59;5085357;27;20031;-79
2020/12/22 10:53:22;;;;;;;50.28;24.08;;;;;;;5.13;93.07;98469.63;5096895;27;20052;-79
2020/12/22 10:55:48;;;;;;;54.70;23.90;;;;;;;5.34;93.10;98467.31;5100178;27;20019;-79
2020/12/22 10:58:13;;;;;;;49.75;22.65;;;;;;;5.57;92.58;98466.66;5083147;28;20483;-79
2020/12/22 11:00:39;;;;;;;51.78;24.77;;;;;;;5.40;92.60;98471.56;5087858;27;20051;-80
2020/12/22 11:03:07;;;;;;;49.20;23.27;;;;;;;5.35;94.27;98453.09;5086600;28;20102;-79
2020/12/22 11:08:20;;;;;;;44.03;18.92;;;;;;;5.36;93.79;98452.22;5113898;27;20037;-79
2020/12/22 11:10:45;;;;;;;49.45;20.08;;;;;;;5.36;93.32;98446.91;5086705;27;20019;-79
2020/12/22 11:13:11;;;;;;;45.72;22.27;;;;;;;5.48;93.28;98443.03;5079407;28;20110;-80
2020/12/22 11:15:38;;;;;;;44.10;19.90;;;;;;;5.30;93.99;98440.88;5086340;28;20138;-81
2020/12/22 11:18:03;;;;;;;53.08;24.95;;;;;;;5.44;92.85;98449.34;5080813;28;20035;-81
2020/12/22 11:20:29;;;;;;;71.05;33.83;;;;;;;5.31;93.61;98440.84;5087528;27;20032;-80
2020/12/22 11:22:55;;;;;;;49.30;22.60;;;;;;;5.42;94.59;98441.44;5097975;27;20027;-80
2020/12/22 11:25:21;;;;;;;44.50;20.10;;;;;;;5.40;92.79;98422.03;5086886;28;20454;-80
2020/12/22 11:27:51;;;;;;;55.92;24.95;;;;;;;5.60;92.06;98423.28;5101456;27;20036;-79
2020/12/22 11:30:16;;;;;;;66.57;27.48;;;;;;;5.33;91.88;98408.97;5093901;27;20036;-79
2020/12/22 11:32:42;;;;;;;62.35;28.80;;;;;;;5.27;92.72;98411.78;5088398;27;20359;-80
2020/12/22 11:35:08;;;;;;;81.80;36.83;;;;;;;5.45;93.39;98421.91;5107238;27;20027;-80
2020/12/22 11:37:35;;;;;;;57.08;28.48;;;;;;;5.75;91.38;98425.50;5085334;28;20032;-76